sensor_id;sensor_type;location;lat;lon;timestamp;P1;durP1;ratioP1;P2;durP2;ratioP2
2111;SDS011;1062;52.538;13.400;2023-02-20T00:00:08;4.63;;;2.90;;
2111;SDS011;1062;52.538;13.400;2023-02-20T00:02:39;3.90;;;2.67;;
2111;SDS011;1062;52.538;13.400;2023-02-20T00:05:05;5.33;;;3.57;;
2111;SDS011;1062;52.538;13.400;2023-02-20T00:07:31;5.77;;;4.40;;
2111;SDS011;1062;52.538;13.400;2023-02-20T00:09:56;3.90;;;3.10;;
2111;SDS011;1062;52.538;13.400;2023-02-20T00:12:22;6.83;;;3.87;;
2111;SDS011;1062;52.538;13.400;2023-02-20T00:14:47;7.23;;;4.30;;
2111;SDS011;1062;52.538;13.400;2023-02-20T00:17:13;9.30;;;5.07;;
2111;SDS011;1062;52.538;13.400;2023-02-20T00:19:39;7.97;;;4.67;;
2111;SDS011;1062;52.538;13.400;2023-02-20T00:22:04;10.03;;;4.80;;
2111;SDS011;1062;52.538;13.400;2023-02-20T00:24:30;6.53;;;4.73;;
2111;SDS011;1062;52.538;13.400;2023-02-20T00:26:56;7.73;;;4.83;;
2111;SDS011;1062;52.538;13.400;2023-02-20T00:29:22;8.17;;;5.17;;
2111;SDS011;1062;52.538;13.400;2023-02-20T00:31:51;6.60;;;3.80;;
2111;SDS011;1062;52.538;13.400;2023-02-20T00:34:19;4.90;;;3.90;;
2111;SDS011;1062;52.538;13.400;2023-02-20T00:36:45;5.07;;;3.70;;
2111;SDS011;1062;52.538;13.400;2023-02-20T00:39:11;5.40;;;3.00;;
2111;SDS011;1062;52.538;13.400;2023-02-20T00:41:37;5.63;;;3.70;;
2111;SDS011;1062;52.538;13.400;2023-02-20T00:44:03;7.00;;;3.90;;
2111;SDS011;1062;52.538;13.400;2023-02-20T00:46:28;5.30;;;4.13;;
2111;SDS011;1062;52.538;13.400;2023-02-20T00:48:54;4.70;;;3.53;;
2111;SDS011;1062;52.538;13.400;2023-02-20T00:51:20;5.10;;;3.30;;
2111;SDS011;1062;52.538;13.400;2023-02-20T00:53:45;9.43;;;5.10;;
2111;SDS011;1062;52.538;13.400;2023-02-20T00:56:11;5.60;;;4.10;;
2111;SDS011;1062;52.538;13.400;2023-02-20T00:58:37;5.87;;;4.53;;
2111;SDS011;1062;52.538;13.400;2023-02-20T01:01:02;6.90;;;3.80;;
2111;SDS011;1062;52.538;13.400;2023-02-20T01:03:28;8.33;;;3.80;;
2111;SDS011;1062;52.538;13.400;2023-02-20T01:05:53;5.57;;;2.90;;
2111;SDS011;1062;52.538;13.400;2023-02-20T01:08:19;5.30;;;4.20;;
2111;SDS011;1062;52.538;13.400;2023-02-20T01:10:45;10.73;;;4.43;;
2111;SDS011;1062;52.538;13.400;2023-02-20T01:13:10;6.20;;;4.07;;
2111;SDS011;1062;52.538;13.400;2023-02-20T01:15:36;6.77;;;4.27;;
2111;SDS011;1062;52.538;13.400;2023-02-20T01:18:01;6.07;;;4.17;;
2111;SDS011;1062;52.538;13.400;2023-02-20T01:20:29;4.30;;;3.30;;
2111;SDS011;1062;52.538;13.400;2023-02-20T01:22:55;4.40;;;3.90;;
2111;SDS011;1062;52.538;13.400;2023-02-20T01:25:21;5.30;;;2.93;;
2111;SDS011;1062;52.538;13.400;2023-02-20T01:27:46;3.90;;;3.30;;
2111;SDS011;1062;52.538;13.400;2023-02-20T01:30:12;4.93;;;3.87;;
2111;SDS011;1062;52.538;13.400;2023-02-20T01:32:38;8.80;;;4.27;;
2111;SDS011;1062;52.538;13.400;2023-02-20T01:35:04;5.63;;;3.87;;
2111;SDS011;1062;52.538;13.400;2023-02-20T01:37:30;5.40;;;3.70;;
2111;SDS011;1062;52.538;13.400;2023-02-20T01:39:57;6.77;;;4.07;;
2111;SDS011;1062;52.538;13.400;2023-02-20T01:42:23;5.87;;;3.33;;
2111;SDS011;1062;52.538;13.400;2023-02-20T01:44:52;3.87;;;3.37;;
2111;SDS011;1062;52.538;13.400;2023-02-20T01:47:19;3.80;;;3.50;;
2111;SDS011;1062;52.538;13.400;2023-02-20T01:49:48;5.90;;;4.40;;
2111;SDS011;1062;52.538;13.400;2023-02-20T01:52:25;6.87;;;4.90;;
2111;SDS011;1062;52.538;13.400;2023-02-20T01:54:56;9.57;;;5.33;;
2111;SDS011;1062;52.538;13.400;2023-02-20T01:57:29;8.57;;;3.80;;
2111;SDS011;1062;52.538;13.400;2023-02-20T02:00:05;8.20;;;2.93;;
2111;SDS011;1062;52.538;13.400;2023-02-20T02:02:37;6.30;;;4.80;;
2111;SDS011;1062;52.538;13.400;2023-02-20T02:05:06;5.33;;;3.90;;
2111;SDS011;1062;52.538;13.400;2023-02-20T02:07:33;6.13;;;3.90;;
2111;SDS011;1062;52.538;13.400;2023-02-20T02:10:06;3.70;;;2.70;;
2111;SDS011;1062;52.538;13.400;2023-02-20T02:12:35;7.03;;;2.97;;
2111;SDS011;1062;52.538;13.400;2023-02-20T02:15:01;5.90;;;4.83;;
2111;SDS011;1062;52.538;13.400;2023-02-20T02:28:59;5.57;;;3.50;;
2111;SDS011;1062;52.538;13.400;2023-02-20T02:31:36;6.83;;;3.60;;
2111;SDS011;1062;52.538;13.400;2023-02-20T02:43:15;5.17;;;3.80;;
2111;SDS011;1062;52.538;13.400;2023-02-20T02:45:54;8.97;;;4.13;;
2111;SDS011;1062;52.538;13.400;2023-02-20T02:49:06;7.97;;;4.70;;
2111;SDS011;1062;52.538;13.400;2023-02-20T02:51:17;4.73;;;3.57;;
2111;SDS011;1062;52.538;13.400;2023-02-20T02:54:03;6.23;;;4.23;;
2111;SDS011;1062;52.538;13.400;2023-02-20T02:56:46;5.40;;;3.90;;
2111;SDS011;1062;52.538;13.400;2023-02-20T02:59:17;6.40;;;4.20;;
2111;SDS011;1062;52.538;13.400;2023-02-20T03:01:52;7.13;;;4.27;;
2111;SDS011;1062;52.538;13.400;2023-02-20T03:04:21;5.07;;;4.13;;
2111;SDS011;1062;52.538;13.400;2023-02-20T03:06:50;6.50;;;4.80;;
2111;SDS011;1062;52.538;13.400;2023-02-20T03:09:29;4.13;;;3.73;;
2111;SDS011;1062;52.538;13.400;2023-02-20T03:12:02;4.87;;;3.60;;
2111;SDS011;1062;52.538;13.400;2023-02-20T03:14:33;6.53;;;4.40;;
2111;SDS011;1062;52.538;13.400;2023-02-20T03:17:51;10.40;;;4.83;;
2111;SDS011;1062;52.538;13.400;2023-02-20T03:20:22;6.77;;;3.83;;
2111;SDS011;1062;52.538;13.400;2023-02-20T03:22:55;9.47;;;5.00;;
2111;SDS011;1062;52.538;13.400;2023-02-20T03:25:29;5.83;;;4.03;;
2111;SDS011;1062;52.538;13.400;2023-02-20T03:28:00;7.63;;;4.40;;
2111;SDS011;1062;52.538;13.400;2023-02-20T03:33:06;7.57;;;5.23;;
2111;SDS011;1062;52.538;13.400;2023-02-20T03:35:56;7.10;;;4.77;;
2111;SDS011;1062;52.538;13.400;2023-02-20T03:38:43;18.40;;;5.07;;
2111;SDS011;1062;52.538;13.400;2023-02-20T03:41:34;7.13;;;4.20;;
2111;SDS011;1062;52.538;13.400;2023-02-20T03:44:20;10.30;;;5.17;;
2111;SDS011;1062;52.538;13.400;2023-02-20T03:46:48;6.90;;;4.93;;
2111;SDS011;1062;52.538;13.400;2023-02-20T03:49:17;6.47;;;4.80;;
2111;SDS011;1062;52.538;13.400;2023-02-20T03:51:46;7.40;;;4.77;;
2111;SDS011;1062;52.538;13.400;2023-02-20T03:54:24;10.00;;;4.77;;
2111;SDS011;1062;52.538;13.400;2023-02-20T03:56:54;7.33;;;5.37;;
2111;SDS011;1062;52.538;13.400;2023-02-20T03:59:30;6.47;;;4.90;;
2111;SDS011;1062;52.538;13.400;2023-02-20T04:02:03;7.40;;;4.73;;
2111;SDS011;1062;52.538;13.400;2023-02-20T04:04:36;7.37;;;4.83;;
2111;SDS011;1062;52.538;13.400;2023-02-20T04:07:06;6.83;;;4.70;;
2111;SDS011;1062;52.538;13.400;2023-02-20T04:09:36;8.17;;;5.50;;
2111;SDS011;1062;52.538;13.400;2023-02-20T04:12:22;6.30;;;5.47;;
2111;SDS011;1062;52.538;13.400;2023-02-20T04:14:51;6.27;;;4.93;;
2111;SDS011;1062;52.538;13.400;2023-02-20T04:17:20;5.90;;;5.30;;
2111;SDS011;1062;52.538;13.400;2023-02-20T04:19:50;7.70;;;6.13;;
2111;SDS011;1062;52.538;13.400;2023-02-20T04:22:29;6.57;;;5.43;;
2111;SDS011;1062;52.538;13.400;2023-02-20T04:25:00;8.70;;;5.40;;
2111;SDS011;1062;52.538;13.400;2023-02-20T04:27:34;6.00;;;5.00;;
2111;SDS011;1062;52.538;13.400;2023-02-20T04:30:00;8.50;;;5.57;;
2111;SDS011;1062;52.538;13.400;2023-02-20T04:32:26;6.30;;;4.83;;
2111;SDS011;1062;52.538;13.400;2023-02-20T04:34:51;5.80;;;4.70;;
2111;SDS011;1062;52.538;13.400;2023-02-20T04:37:18;8.17;;;5.07;;
2111;SDS011;1062;52.538;13.400;2023-02-20T04:39:44;7.33;;;4.80;;
2111;SDS011;1062;52.538;13.400;2023-02-20T04:42:10;8.77;;;6.03;;
2111;SDS011;1062;52.538;13.400;2023-02-20T04:44:36;8.00;;;5.50;;
2111;SDS011;1062;52.538;13.400;2023-02-20T04:47:05;7.53;;;5.63;;
2111;SDS011;1062;52.538;13.400;2023-02-20T04:49:32;5.47;;;4.93;;
2111;SDS011;1062;52.538;13.400;2023-02-20T04:51:57;9.10;;;5.13;;
2111;SDS011;1062;52.538;13.400;2023-02-20T04:54:23;7.67;;;5.13;;
2111;SDS011;1062;52.538;13.400;2023-02-20T04:56:49;6.97;;;5.00;;
2111;SDS011;1062;52.538;13.400;2023-02-20T04:59:15;6.27;;;4.70;;
2111;SDS011;1062;52.538;13.400;2023-02-20T05:01:41;6.97;;;6.20;;
2111;SDS011;1062;52.538;13.400;2023-02-20T05:04:11;5.73;;;3.83;;
2111;SDS011;1062;52.538;13.400;2023-02-20T05:06:41;7.70;;;5.00;;
2111;SDS011;1062;52.538;13.400;2023-02-20T05:09:08;9.87;;;5.30;;
2111;SDS011;1062;52.538;13.400;2023-02-20T05:11:35;6.83;;;5.20;;
2111;SDS011;1062;52.538;13.400;2023-02-20T05:14:02;7.43;;;5.10;;
2111;SDS011;1062;52.538;13.400;2023-02-20T05:16:28;5.83;;;4.63;;
2111;SDS011;1062;52.538;13.400;2023-02-20T05:18:53;6.23;;;5.37;;
2111;SDS011;1062;52.538;13.400;2023-02-20T05:21:19;6.80;;;4.67;;
2111;SDS011;1062;52.538;13.400;2023-02-20T05:24:04;6.63;;;4.90;;
2111;SDS011;1062;52.538;13.400;2023-02-20T05:26:30;7.03;;;5.40;;
2111;SDS011;1062;52.538;13.400;2023-02-20T05:28:55;7.10;;;4.87;;
2111;SDS011;1062;52.538;13.400;2023-02-20T05:31:21;7.00;;;4.83;;
2111;SDS011;1062;52.538;13.400;2023-02-20T05:33:46;6.67;;;5.63;;
2111;SDS011;1062;52.538;13.400;2023-02-20T05:36:12;9.00;;;5.07;;
2111;SDS011;1062;52.538;13.400;2023-02-20T05:38:38;6.87;;;5.47;;
2111;SDS011;1062;52.538;13.400;2023-02-20T05:41:05;7.63;;;5.63;;
2111;SDS011;1062;52.538;13.400;2023-02-20T05:43:31;9.63;;;6.50;;
2111;SDS011;1062;52.538;13.400;2023-02-20T05:45:56;7.33;;;5.90;;
2111;SDS011;1062;52.538;13.400;2023-02-20T05:48:22;10.07;;;6.40;;
2111;SDS011;1062;52.538;13.400;2023-02-20T05:50:48;8.43;;;5.63;;
2111;SDS011;1062;52.538;13.400;2023-02-20T05:53:14;6.40;;;5.17;;
2111;SDS011;1062;52.538;13.400;2023-02-20T05:55:40;8.67;;;6.23;;
2111;SDS011;1062;52.538;13.400;2023-02-20T05:58:05;8.30;;;5.63;;
2111;SDS011;1062;52.538;13.400;2023-02-20T06:00:31;8.13;;;5.90;;
2111;SDS011;1062;52.538;13.400;2023-02-20T06:02:57;9.83;;;5.57;;
2111;SDS011;1062;52.538;13.400;2023-02-20T06:05:22;7.80;;;6.03;;
2111;SDS011;1062;52.538;13.400;2023-02-20T06:07:50;8.83;;;5.47;;
2111;SDS011;1062;52.538;13.400;2023-02-20T06:10:17;8.13;;;6.77;;
2111;SDS011;1062;52.538;13.400;2023-02-20T06:12:43;6.70;;;5.47;;
2111;SDS011;1062;52.538;13.400;2023-02-20T06:15:08;6.00;;;5.00;;
2111;SDS011;1062;52.538;13.400;2023-02-20T06:17:34;8.40;;;5.13;;
2111;SDS011;1062;52.538;13.400;2023-02-20T06:20:00;6.90;;;5.30;;
2111;SDS011;1062;52.538;13.400;2023-02-20T06:22:25;7.80;;;5.80;;
2111;SDS011;1062;52.538;13.400;2023-02-20T06:24:51;7.97;;;6.40;;
2111;SDS011;1062;52.538;13.400;2023-02-20T06:27:17;6.10;;;4.87;;
2111;SDS011;1062;52.538;13.400;2023-02-20T06:29:42;8.93;;;6.47;;
2111;SDS011;1062;52.538;13.400;2023-02-20T06:32:11;8.33;;;5.40;;
2111;SDS011;1062;52.538;13.400;2023-02-20T06:34:37;6.83;;;5.23;;
2111;SDS011;1062;52.538;13.400;2023-02-20T06:37:03;9.43;;;6.00;;
2111;SDS011;1062;52.538;13.400;2023-02-20T06:39:29;9.60;;;6.67;;
2111;SDS011;1062;52.538;13.400;2023-02-20T06:41:56;11.27;;;6.63;;
2111;SDS011;1062;52.538;13.400;2023-02-20T06:44:21;10.10;;;6.83;;
2111;SDS011;1062;52.538;13.400;2023-02-20T06:46:47;6.80;;;5.63;;
2111;SDS011;1062;52.538;13.400;2023-02-20T06:49:13;8.83;;;7.50;;
2111;SDS011;1062;52.538;13.400;2023-02-20T06:51:39;9.87;;;6.40;;
2111;SDS011;1062;52.538;13.400;2023-02-20T06:54:06;16.70;;;9.53;;
2111;SDS011;1062;52.538;13.400;2023-02-20T06:56:32;9.57;;;8.33;;
2111;SDS011;1062;52.538;13.400;2023-02-20T06:59:00;11.73;;;8.50;;
2111;SDS011;1062;52.538;13.400;2023-02-20T07:01:29;13.53;;;8.77;;
2111;SDS011;1062;52.538;13.400;2023-02-20T07:04:00;11.70;;;9.00;;
2111;SDS011;1062;52.538;13.400;2023-02-20T07:06:26;10.00;;;7.07;;
2111;SDS011;1062;52.538;13.400;2023-02-20T07:08:52;17.53;;;9.80;;
2111;SDS011;1062;52.538;13.400;2023-02-20T07:11:18;14.33;;;8.87;;
2111;SDS011;1062;52.538;13.400;2023-02-20T07:13:45;12.93;;;9.03;;
2111;SDS011;1062;52.538;13.400;2023-02-20T07:16:10;10.30;;;7.83;;
2111;SDS011;1062;52.538;13.400;2023-02-20T07:18:36;13.43;;;8.50;;
2111;SDS011;1062;52.538;13.400;2023-02-20T07:21:02;10.80;;;7.73;;
2111;SDS011;1062;52.538;13.400;2023-02-20T07:23:28;12.00;;;9.10;;
2111;SDS011;1062;52.538;13.400;2023-02-20T07:25:53;15.50;;;8.07;;
2111;SDS011;1062;52.538;13.400;2023-02-20T07:28:19;11.90;;;8.20;;
2111;SDS011;1062;52.538;13.400;2023-02-20T07:30:45;13.67;;;8.57;;
2111;SDS011;1062;52.538;13.400;2023-02-20T07:33:13;10.40;;;6.90;;
2111;SDS011;1062;52.538;13.400;2023-02-20T07:35:39;12.07;;;8.87;;
2111;SDS011;1062;52.538;13.400;2023-02-20T07:38:05;11.57;;;8.33;;
2111;SDS011;1062;52.538;13.400;2023-02-20T07:40:31;10.37;;;7.80;;
2111;SDS011;1062;52.538;13.400;2023-02-20T07:42:56;9.97;;;7.23;;
2111;SDS011;1062;52.538;13.400;2023-02-20T07:45:22;11.03;;;8.80;;
2111;SDS011;1062;52.538;13.400;2023-02-20T07:47:48;8.57;;;6.50;;
2111;SDS011;1062;52.538;13.400;2023-02-20T07:50:14;12.23;;;7.67;;
2111;SDS011;1062;52.538;13.400;2023-02-20T07:52:40;12.80;;;7.50;;
2111;SDS011;1062;52.538;13.400;2023-02-20T07:55:06;9.00;;;7.20;;
2111;SDS011;1062;52.538;13.400;2023-02-20T07:57:33;10.97;;;7.90;;
2111;SDS011;1062;52.538;13.400;2023-02-20T08:00:00;11.77;;;8.70;;
2111;SDS011;1062;52.538;13.400;2023-02-20T08:02:26;10.30;;;7.37;;
2111;SDS011;1062;52.538;13.400;2023-02-20T08:04:51;10.67;;;8.40;;
2111;SDS011;1062;52.538;13.400;2023-02-20T08:07:17;10.93;;;7.23;;
2111;SDS011;1062;52.538;13.400;2023-02-20T08:09:45;10.80;;;7.60;;
2111;SDS011;1062;52.538;13.400;2023-02-20T08:12:11;8.90;;;6.10;;
2111;SDS011;1062;52.538;13.400;2023-02-20T08:14:37;14.90;;;9.93;;
2111;SDS011;1062;52.538;13.400;2023-02-20T08:17:03;9.63;;;7.23;;
2111;SDS011;1062;52.538;13.400;2023-02-20T08:19:28;10.43;;;6.77;;
2111;SDS011;1062;52.538;13.400;2023-02-20T08:21:54;9.10;;;5.50;;
2111;SDS011;1062;52.538;13.400;2023-02-20T08:24:20;12.20;;;7.80;;
2111;SDS011;1062;52.538;13.400;2023-02-20T08:26:46;8.20;;;6.43;;
2111;SDS011;1062;52.538;13.400;2023-02-20T08:29:12;10.77;;;7.50;;
2111;SDS011;1062;52.538;13.400;2023-02-20T08:31:39;9.90;;;8.17;;
2111;SDS011;1062;52.538;13.400;2023-02-20T08:34:05;8.20;;;5.60;;
2111;SDS011;1062;52.538;13.400;2023-02-20T08:36:30;7.70;;;5.97;;
2111;SDS011;1062;52.538;13.400;2023-02-20T08:38:56;7.70;;;6.30;;
2111;SDS011;1062;52.538;13.400;2023-02-20T08:41:21;9.10;;;6.30;;
2111;SDS011;1062;52.538;13.400;2023-02-20T08:43:47;6.70;;;5.40;;
2111;SDS011;1062;52.538;13.400;2023-02-20T08:46:13;8.77;;;6.77;;
2111;SDS011;1062;52.538;13.400;2023-02-20T08:48:39;10.47;;;6.67;;
2111;SDS011;1062;52.538;13.400;2023-02-20T08:51:05;9.57;;;6.03;;
2111;SDS011;1062;52.538;13.400;2023-02-20T08:53:32;7.27;;;5.63;;
2111;SDS011;1062;52.538;13.400;2023-02-20T08:55:58;8.37;;;5.60;;
2111;SDS011;1062;52.538;13.400;2023-02-20T08:58:24;10.70;;;7.07;;
2111;SDS011;1062;52.538;13.400;2023-02-20T09:00:50;6.50;;;5.40;;
2111;SDS011;1062;52.538;13.400;2023-02-20T09:03:17;7.37;;;6.00;;
2111;SDS011;1062;52.538;13.400;2023-02-20T09:05:42;6.40;;;5.53;;
2111;SDS011;1062;52.538;13.400;2023-02-20T09:08:08;8.10;;;5.27;;
2111;SDS011;1062;52.538;13.400;2023-02-20T09:10:34;6.30;;;5.03;;
2111;SDS011;1062;52.538;13.400;2023-02-20T09:13:00;11.37;;;5.90;;
2111;SDS011;1062;52.538;13.400;2023-02-20T09:15:26;7.17;;;5.10;;
2111;SDS011;1062;52.538;13.400;2023-02-20T09:17:51;8.20;;;5.37;;
2111;SDS011;1062;52.538;13.400;2023-02-20T09:20:18;6.10;;;4.33;;
2111;SDS011;1062;52.538;13.400;2023-02-20T09:22:48;6.50;;;5.60;;
2111;SDS011;1062;52.538;13.400;2023-02-20T09:25:15;5.73;;;4.00;;
2111;SDS011;1062;52.538;13.400;2023-02-20T09:27:41;5.47;;;4.50;;
2111;SDS011;1062;52.538;13.400;2023-02-20T09:30:07;6.43;;;4.10;;
2111;SDS011;1062;52.538;13.400;2023-02-20T09:32:34;8.20;;;5.63;;
2111;SDS011;1062;52.538;13.400;2023-02-20T09:34:59;7.43;;;5.23;;
2111;SDS011;1062;52.538;13.400;2023-02-20T09:37:25;6.07;;;4.03;;
2111;SDS011;1062;52.538;13.400;2023-02-20T09:39:50;6.27;;;3.73;;
2111;SDS011;1062;52.538;13.400;2023-02-20T09:50:34;5.73;;;4.53;;
2111;SDS011;1062;52.538;13.400;2023-02-20T09:55:54;4.83;;;3.87;;
2111;SDS011;1062;52.538;13.400;2023-02-20T10:01:07;5.87;;;3.57;;
2111;SDS011;1062;52.538;13.400;2023-02-20T10:03:35;5.87;;;4.03;;
2111;SDS011;1062;52.538;13.400;2023-02-20T10:06:17;5.50;;;4.20;;
2111;SDS011;1062;52.538;13.400;2023-02-20T10:08:48;6.60;;;4.50;;
2111;SDS011;1062;52.538;13.400;2023-02-20T10:11:17;4.47;;;3.60;;
2111;SDS011;1062;52.538;13.400;2023-02-20T10:13:53;12.10;;;4.30;;
2111;SDS011;1062;52.538;13.400;2023-02-20T10:21:44;5.30;;;4.00;;
2111;SDS011;1062;52.538;13.400;2023-02-20T10:27:25;7.23;;;4.20;;
2111;SDS011;1062;52.538;13.400;2023-02-20T10:29:52;7.50;;;3.90;;
2111;SDS011;1062;52.538;13.400;2023-02-20T10:32:26;5.60;;;3.43;;
2111;SDS011;1062;52.538;13.400;2023-02-20T10:35:19;4.27;;;3.87;;
2111;SDS011;1062;52.538;13.400;2023-02-20T10:37:50;3.50;;;3.17;;
2111;SDS011;1062;52.538;13.400;2023-02-20T10:40:25;4.63;;;3.73;;
2111;SDS011;1062;52.538;13.400;2023-02-20T10:46:04;7.80;;;4.17;;
2111;SDS011;1062;52.538;13.400;2023-02-20T10:48:30;4.47;;;3.27;;
2111;SDS011;1062;52.538;13.400;2023-02-20T10:56:44;4.23;;;3.70;;
2111;SDS011;1062;52.538;13.400;2023-02-20T10:59:24;7.80;;;4.37;;
2111;SDS011;1062;52.538;13.400;2023-02-20T11:01:57;3.93;;;3.23;;
2111;SDS011;1062;52.538;13.400;2023-02-20T11:04:29;7.53;;;3.97;;
2111;SDS011;1062;52.538;13.400;2023-02-20T11:06:59;6.43;;;3.30;;
2111;SDS011;1062;52.538;13.400;2023-02-20T11:09:29;4.50;;;3.53;;
2111;SDS011;1062;52.538;13.400;2023-02-20T11:11:54;4.60;;;3.33;;
2111;SDS011;1062;52.538;13.400;2023-02-20T11:14:25;7.23;;;3.60;;
2111;SDS011;1062;52.538;13.400;2023-02-20T11:17:06;4.07;;;3.27;;
2111;SDS011;1062;52.538;13.400;2023-02-20T11:22:13;5.53;;;3.90;;
2111;SDS011;1062;52.538;13.400;2023-02-20T11:24:41;5.07;;;3.73;;
2111;SDS011;1062;52.538;13.400;2023-02-20T11:27:20;8.00;;;3.40;;
2111;SDS011;1062;52.538;13.400;2023-02-20T11:30:15;3.87;;;2.77;;
2111;SDS011;1062;52.538;13.400;2023-02-20T11:32:45;4.70;;;3.53;;
2111;SDS011;1062;52.538;13.400;2023-02-20T11:37:42;6.03;;;4.10;;
2111;SDS011;1062;52.538;13.400;2023-02-20T11:40:27;4.37;;;3.70;;
2111;SDS011;1062;52.538;13.400;2023-02-20T11:42:56;4.77;;;3.63;;
2111;SDS011;1062;52.538;13.400;2023-02-20T11:45:42;6.03;;;3.70;;
2111;SDS011;1062;52.538;13.400;2023-02-20T11:48:09;6.90;;;4.30;;
2111;SDS011;1062;52.538;13.400;2023-02-20T11:50:39;5.70;;;3.53;;
2111;SDS011;1062;52.538;13.400;2023-02-20T11:53:25;3.87;;;3.47;;
2111;SDS011;1062;52.538;13.400;2023-02-20T11:56:07;4.73;;;3.40;;
2111;SDS011;1062;52.538;13.400;2023-02-20T11:58:42;4.60;;;3.53;;
2111;SDS011;1062;52.538;13.400;2023-02-20T12:03:55;6.40;;;3.50;;
2111;SDS011;1062;52.538;13.400;2023-02-20T12:08:57;7.33;;;5.47;;
2111;SDS011;1062;52.538;13.400;2023-02-20T12:11:25;4.67;;;4.17;;
2111;SDS011;1062;52.538;13.400;2023-02-20T12:13:53;9.17;;;4.77;;
2111;SDS011;1062;52.538;13.400;2023-02-20T12:16:25;9.47;;;5.83;;
2111;SDS011;1062;52.538;13.400;2023-02-20T12:36:16;5.93;;;5.20;;
2111;SDS011;1062;52.538;13.400;2023-02-20T12:38:49;8.27;;;5.30;;
2111;SDS011;1062;52.538;13.400;2023-02-20T12:41:56;7.47;;;6.63;;
2111;SDS011;1062;52.538;13.400;2023-02-20T12:44:55;10.93;;;6.77;;
2111;SDS011;1062;52.538;13.400;2023-02-20T12:47:39;6.53;;;5.43;;
2111;SDS011;1062;52.538;13.400;2023-02-20T13:01:52;7.00;;;6.33;;
2111;SDS011;1062;52.538;13.400;2023-02-20T13:04:22;7.77;;;6.80;;
2111;SDS011;1062;52.538;13.400;2023-02-20T13:06:56;8.37;;;6.80;;
2111;SDS011;1062;52.538;13.400;2023-02-20T13:09:31;10.00;;;7.87;;
2111;SDS011;1062;52.538;13.400;2023-02-20T13:12:08;11.17;;;8.93;;
2111;SDS011;1062;52.538;13.400;2023-02-20T13:17:07;13.30;;;8.70;;
2111;SDS011;1062;52.538;13.400;2023-02-20T13:19:55;9.77;;;7.90;;
2111;SDS011;1062;52.538;13.400;2023-02-20T13:22:40;11.37;;;8.37;;
2111;SDS011;1062;52.538;13.400;2023-02-20T13:31:38;13.40;;;8.90;;
2111;SDS011;1062;52.538;13.400;2023-02-20T13:33:46;9.73;;;7.57;;
2111;SDS011;1062;52.538;13.400;2023-02-20T13:36:17;12.43;;;10.20;;
2111;SDS011;1062;52.538;13.400;2023-02-20T13:47:03;16.23;;;9.70;;
2111;SDS011;1062;52.538;13.400;2023-02-20T13:57:41;15.33;;;11.10;;
2111;SDS011;1062;52.538;13.400;2023-02-20T14:03:25;13.77;;;8.03;;
2111;SDS011;1062;52.538;13.400;2023-02-20T14:08:46;13.53;;;9.43;;
2111;SDS011;1062;52.538;13.400;2023-02-20T14:11:23;10.90;;;8.53;;
2111;SDS011;1062;52.538;13.400;2023-02-20T14:13:51;14.00;;;8.83;;
2111;SDS011;1062;52.538;13.400;2023-02-20T14:16:23;11.20;;;8.03;;
2111;SDS011;1062;52.538;13.400;2023-02-20T14:18:55;13.00;;;9.13;;
2111;SDS011;1062;52.538;13.400;2023-02-20T14:21:25;10.03;;;8.47;;
2111;SDS011;1062;52.538;13.400;2023-02-20T14:23:51;11.70;;;8.83;;
2111;SDS011;1062;52.538;13.400;2023-02-20T14:28:57;12.73;;;8.63;;
2111;SDS011;1062;52.538;13.400;2023-02-20T14:39:34;15.23;;;8.30;;
2111;SDS011;1062;52.538;13.400;2023-02-20T14:42:20;10.13;;;7.23;;
2111;SDS011;1062;52.538;13.400;2023-02-20T14:44:47;10.40;;;6.87;;
2111;SDS011;1062;52.538;13.400;2023-02-20T14:47:15;9.87;;;7.30;;
2111;SDS011;1062;52.538;13.400;2023-02-20T14:49:42;11.77;;;7.17;;
2111;SDS011;1062;52.538;13.400;2023-02-20T14:54:34;8.30;;;6.27;;
2111;SDS011;1062;52.538;13.400;2023-02-20T14:57:04;9.20;;;6.27;;
2111;SDS011;1062;52.538;13.400;2023-02-20T14:59:34;9.10;;;6.30;;
2111;SDS011;1062;52.538;13.400;2023-02-20T15:04:51;8.87;;;5.60;;
2111;SDS011;1062;52.538;13.400;2023-02-20T15:07:24;9.87;;;6.53;;
2111;SDS011;1062;52.538;13.400;2023-02-20T15:09:52;10.20;;;6.47;;
2111;SDS011;1062;52.538;13.400;2023-02-20T15:12:38;7.80;;;5.37;;
2111;SDS011;1062;52.538;13.400;2023-02-20T15:15:06;9.57;;;6.20;;
2111;SDS011;1062;52.538;13.400;2023-02-20T15:17:43;9.83;;;6.53;;
2111;SDS011;1062;52.538;13.400;2023-02-20T15:20:15;6.87;;;6.03;;
2111;SDS011;1062;52.538;13.400;2023-02-20T15:22:41;6.60;;;5.30;;
2111;SDS011;1062;52.538;13.400;2023-02-20T15:25:14;5.83;;;5.20;;
2111;SDS011;1062;52.538;13.400;2023-02-20T15:28:02;12.90;;;5.13;;
2111;SDS011;1062;52.538;13.400;2023-02-20T15:36:15;9.43;;;6.63;;
2111;SDS011;1062;52.538;13.400;2023-02-20T15:38:47;7.60;;;5.97;;
2111;SDS011;1062;52.538;13.400;2023-02-20T15:41:15;5.53;;;4.10;;
2111;SDS011;1062;52.538;13.400;2023-02-20T15:43:42;8.17;;;4.93;;
2111;SDS011;1062;52.538;13.400;2023-02-20T15:46:08;6.30;;;4.70;;
2111;SDS011;1062;52.538;13.400;2023-02-20T15:48:33;8.10;;;5.00;;
2111;SDS011;1062;52.538;13.400;2023-02-20T15:50:59;9.40;;;5.77;;
2111;SDS011;1062;52.538;13.400;2023-02-20T15:53:25;9.20;;;5.20;;
2111;SDS011;1062;52.538;13.400;2023-02-20T15:55:54;13.60;;;6.60;;
2111;SDS011;1062;52.538;13.400;2023-02-20T15:58:35;10.57;;;7.03;;
2111;SDS011;1062;52.538;13.400;2023-02-20T16:01:03;7.13;;;4.67;;
2111;SDS011;1062;52.538;13.400;2023-02-20T16:03:29;8.33;;;5.50;;
2111;SDS011;1062;52.538;13.400;2023-02-20T16:05:56;9.23;;;6.87;;
2111;SDS011;1062;52.538;13.400;2023-02-20T16:08:22;7.60;;;5.43;;
2111;SDS011;1062;52.538;13.400;2023-02-20T16:10:49;9.40;;;6.70;;
2111;SDS011;1062;52.538;13.400;2023-02-20T16:13:26;8.00;;;6.30;;
2111;SDS011;1062;52.538;13.400;2023-02-20T16:16:12;8.20;;;6.90;;
2111;SDS011;1062;52.538;13.400;2023-02-20T16:18:44;9.80;;;5.53;;
2111;SDS011;1062;52.538;13.400;2023-02-20T16:21:11;9.80;;;6.77;;
2111;SDS011;1062;52.538;13.400;2023-02-20T16:23:38;10.40;;;6.97;;
2111;SDS011;1062;52.538;13.400;2023-02-20T16:26:05;9.53;;;6.30;;
2111;SDS011;1062;52.538;13.400;2023-02-20T16:28:31;7.70;;;7.00;;
2111;SDS011;1062;52.538;13.400;2023-02-20T16:30:57;6.03;;;5.37;;
2111;SDS011;1062;52.538;13.400;2023-02-20T16:33:23;7.80;;;5.27;;
2111;SDS011;1062;52.538;13.400;2023-02-20T16:35:49;7.03;;;6.23;;
2111;SDS011;1062;52.538;13.400;2023-02-20T16:38:15;10.83;;;7.13;;
2111;SDS011;1062;52.538;13.400;2023-02-20T16:40:41;11.70;;;6.60;;
2111;SDS011;1062;52.538;13.400;2023-02-20T16:43:09;8.80;;;6.60;;
2111;SDS011;1062;52.538;13.400;2023-02-20T16:45:36;6.60;;;5.70;;
2111;SDS011;1062;52.538;13.400;2023-02-20T16:48:02;8.47;;;6.17;;
2111;SDS011;1062;52.538;13.400;2023-02-20T16:50:29;8.80;;;5.83;;
2111;SDS011;1062;52.538;13.400;2023-02-20T16:52:56;7.80;;;5.73;;
2111;SDS011;1062;52.538;13.400;2023-02-20T16:55:27;7.17;;;5.50;;
2111;SDS011;1062;52.538;13.400;2023-02-20T16:57:57;9.13;;;5.50;;
2111;SDS011;1062;52.538;13.400;2023-02-20T17:00:24;8.97;;;5.90;;
2111;SDS011;1062;52.538;13.400;2023-02-20T17:02:55;9.03;;;6.43;;
2111;SDS011;1062;52.538;13.400;2023-02-20T17:05:25;8.43;;;5.77;;
2111;SDS011;1062;52.538;13.400;2023-02-20T17:07:53;9.90;;;6.40;;
2111;SDS011;1062;52.538;13.400;2023-02-20T17:10:19;6.97;;;6.00;;
2111;SDS011;1062;52.538;13.400;2023-02-20T17:12:45;13.93;;;6.13;;
2111;SDS011;1062;52.538;13.400;2023-02-20T17:15:12;8.97;;;6.77;;
2111;SDS011;1062;52.538;13.400;2023-02-20T17:17:39;10.00;;;6.77;;
2111;SDS011;1062;52.538;13.400;2023-02-20T17:20:05;7.53;;;5.70;;
2111;SDS011;1062;52.538;13.400;2023-02-20T17:22:31;9.83;;;7.27;;
2111;SDS011;1062;52.538;13.400;2023-02-20T17:24:56;9.20;;;6.50;;
2111;SDS011;1062;52.538;13.400;2023-02-20T17:27:22;8.83;;;6.77;;
2111;SDS011;1062;52.538;13.400;2023-02-20T17:29:48;9.73;;;6.57;;
2111;SDS011;1062;52.538;13.400;2023-02-20T17:32:15;9.40;;;6.63;;
2111;SDS011;1062;52.538;13.400;2023-02-20T17:34:41;7.97;;;5.40;;
2111;SDS011;1062;52.538;13.400;2023-02-20T17:37:08;8.60;;;6.17;;